createdAt,value
2023-05-03T00:01:56.995Z,9.50
2023-05-03T00:04:24.244Z,9.50
2023-05-03T00:06:51.466Z,9.60
2023-05-03T00:09:18.134Z,9.60
2023-05-03T00:11:44.670Z,9.60
2023-05-03T00:14:11.301Z,9.40
2023-05-03T00:16:37.803Z,9.40
2023-05-03T00:19:04.276Z,9.30
2023-05-03T00:21:31.691Z,9.40
2023-05-03T00:23:58.329Z,9.40
2023-05-03T00:26:26.369Z,9.40
2023-05-03T00:28:52.838Z,9.40
2023-05-03T00:31:19.609Z,9.40
2023-05-03T00:33:46.126Z,9.40
2023-05-03T00:36:14.243Z,9.40
2023-05-03T00:38:42.414Z,9.40
2023-05-03T00:41:13.141Z,9.30
2023-05-03T00:43:39.743Z,9.30
2023-05-03T00:46:16.579Z,9.20
2023-05-03T00:48:46.370Z,9.10
2023-05-03T00:51:15.008Z,9.00
2023-05-03T00:53:42.845Z,9.00
2023-05-03T00:56:09.815Z,8.90
2023-05-03T00:58:40.059Z,8.80
2023-05-03T01:01:09.768Z,8.90
2023-05-03T01:03:41.261Z,9.00
2023-05-03T01:06:25.156Z,8.90
2023-05-03T01:09:17.427Z,8.90
2023-05-03T01:12:00.686Z,8.80
2023-05-03T01:14:49.726Z,8.80
2023-05-03T01:17:16.829Z,8.70
2023-05-03T01:19:47.732Z,8.70
2023-05-03T01:22:26.352Z,8.60
2023-05-03T01:25:09.373Z,8.50
2023-05-03T01:27:36.972Z,8.50
2023-05-03T01:30:05.915Z,8.60
2023-05-03T01:32:49.226Z,8.70
2023-05-03T01:35:31.130Z,8.60
2023-05-03T01:37:57.894Z,8.60
2023-05-03T01:40:27.726Z,8.60
2023-05-03T01:42:55.562Z,8.70
2023-05-03T01:45:22.498Z,8.70
2023-05-03T01:47:49.054Z,8.60
2023-05-03T01:50:15.770Z,8.40
2023-05-03T01:52:42.306Z,8.40
2023-05-03T01:55:09.307Z,8.40
2023-05-03T01:57:35.890Z,8.30
2023-05-03T02:00:02.667Z,8.30
2023-05-03T02:02:39.086Z,8.30
2023-05-03T02:05:06.190Z,8.30
2023-05-03T02:07:33.696Z,8.40
2023-05-03T02:10:01.046Z,8.40
2023-05-03T02:12:27.766Z,8.30
2023-05-03T02:14:54.355Z,8.20
2023-05-03T02:17:20.930Z,8.30
2023-05-03T02:19:47.465Z,8.20
2023-05-03T02:22:13.951Z,8.20
2023-05-03T02:24:40.412Z,8.20
2023-05-03T02:27:07.223Z,8.00
2023-05-03T02:29:34.143Z,7.80
2023-05-03T02:32:05.385Z,7.90
2023-05-03T02:34:33.079Z,7.90
2023-05-03T02:37:01.021Z,7.90
2023-05-03T02:39:29.217Z,7.80
2023-05-03T02:41:56.846Z,7.80
2023-05-03T02:44:23.365Z,7.70
2023-05-03T02:46:50.163Z,7.70
2023-05-03T02:49:17.273Z,7.70
2023-05-03T02:51:44.259Z,7.70
2023-05-03T02:54:10.763Z,7.70
2023-05-03T02:56:38.235Z,7.60
2023-05-03T02:59:04.714Z,7.50
2023-05-03T03:01:33.945Z,7.60
2023-05-03T03:04:00.887Z,7.60
2023-05-03T03:06:28.161Z,7.60
2023-05-03T03:08:54.893Z,7.50
2023-05-03T03:11:22.293Z,7.40
2023-05-03T03:13:48.815Z,7.40
2023-05-03T03:16:15.483Z,7.40
2023-05-03T03:18:42.082Z,7.40
2023-05-03T03:21:08.899Z,7.30
2023-05-03T03:23:36.490Z,7.40
2023-05-03T03:26:03.397Z,7.40
2023-05-03T03:28:29.858Z,7.30
2023-05-03T03:31:00.053Z,7.20
2023-05-03T03:33:26.647Z,7.10
2023-05-03T03:35:58.818Z,7.10
2023-05-03T03:38:30.220Z,7.20
2023-05-03T03:41:02.324Z,7.20
2023-05-03T03:43:29.283Z,7.10
2023-05-03T03:45:57.171Z,7.00
2023-05-03T03:48:23.745Z,7.00
2023-05-03T03:50:51.057Z,7.00
2023-05-03T03:53:19.822Z,7.00
2023-05-03T03:55:46.761Z,6.90
2023-05-03T03:58:15.142Z,6.90
2023-05-03T04:00:42.783Z,7.00
2023-05-03T04:03:15.961Z,7.00
2023-05-03T04:05:43.124Z,7.10
2023-05-03T04:08:09.688Z,7.20
2023-05-03T04:10:37.819Z,7.20
2023-05-03T04:13:05.132Z,7.00
2023-05-03T04:15:31.973Z,7.00
2023-05-03T04:18:00.459Z,6.90
2023-05-03T04:20:28.059Z,6.80
2023-05-03T04:22:55.394Z,6.90
2023-05-03T04:25:25.734Z,7.10
2023-05-03T04:27:58.722Z,7.20
2023-05-03T04:30:26.688Z,7.10
2023-05-03T04:32:59.863Z,6.90
2023-05-03T04:35:28.790Z,6.90
2023-05-03T04:37:57.373Z,7.00
2023-05-03T04:40:26.222Z,6.90
2023-05-03T04:43:01.112Z,7.00
2023-05-03T04:45:30.387Z,7.00
2023-05-03T04:47:57.604Z,7.00
2023-05-03T04:50:24.777Z,7.10
2023-05-03T04:52:51.416Z,7.10
2023-05-03T04:55:20.047Z,7.20
2023-05-03T04:57:46.941Z,7.40
2023-05-03T05:00:14.732Z,7.40
2023-05-03T05:02:45.900Z,7.30
2023-05-03T05:05:13.750Z,7.40
2023-05-03T05:07:40.779Z,7.50
2023-05-03T05:10:10.060Z,7.40
2023-05-03T05:12:36.947Z,7.50
2023-05-03T05:15:05.697Z,7.50
2023-05-03T05:17:38.640Z,7.50
2023-05-03T05:20:08.197Z,7.60
2023-05-03T05:22:34.762Z,7.70
2023-05-03T05:25:01.603Z,7.70
2023-05-03T05:27:29.381Z,7.80
2023-05-03T05:29:57.654Z,7.70
2023-05-03T05:32:24.328Z,7.80
2023-05-03T05:34:55.444Z,8.00
2023-05-03T05:37:25.150Z,8.10
2023-05-03T05:39:53.818Z,8.20
2023-05-03T05:42:22.812Z,8.30
2023-05-03T05:44:49.630Z,8.50
2023-05-03T05:47:17.299Z,8.60
2023-05-03T05:49:45.681Z,8.70
2023-05-03T05:52:13.035Z,8.70
2023-05-03T05:54:39.884Z,8.60
2023-05-03T05:57:07.059Z,8.80
2023-05-03T05:59:34.522Z,8.90
2023-05-03T06:02:02.139Z,8.90
2023-05-03T06:04:29.555Z,8.90
2023-05-03T06:06:57.085Z,9.00
2023-05-03T06:09:25.021Z,9.00
2023-05-03T06:11:56.328Z,9.10
2023-05-03T06:14:24.887Z,9.00
2023-05-03T06:16:52.087Z,9.10
2023-05-03T06:19:18.615Z,9.10
2023-05-03T06:21:45.058Z,9.20
2023-05-03T06:24:11.533Z,9.20
2023-05-03T06:26:38.936Z,9.10
2023-05-03T06:29:06.229Z,9.20
2023-05-03T06:31:32.787Z,9.40
2023-05-03T06:33:59.566Z,9.50
2023-05-03T06:36:27.665Z,9.60
2023-05-03T06:38:54.160Z,9.70
2023-05-03T06:41:20.662Z,9.90
2023-05-03T06:43:47.425Z,9.90
2023-05-03T06:46:13.961Z,10.00
2023-05-03T06:48:40.651Z,10.10
2023-05-03T06:51:07.165Z,10.20
2023-05-03T06:53:33.713Z,10.30
2023-05-03T06:56:00.682Z,10.20
2023-05-03T06:58:27.453Z,10.20
2023-05-03T07:00:54.038Z,10.30
2023-05-03T07:03:20.924Z,10.40
2023-05-03T07:05:48.166Z,10.40
2023-05-03T07:08:14.648Z,10.50
2023-05-03T07:10:41.840Z,10.60
2023-05-03T07:13:08.527Z,10.60
2023-05-03T07:15:35.049Z,10.80
2023-05-03T07:18:01.593Z,11.00
2023-05-03T07:20:28.124Z,11.00
2023-05-03T07:22:54.609Z,11.10
2023-05-03T07:25:21.178Z,11.10
2023-05-03T07:27:47.673Z,11.20
2023-05-03T07:30:14.464Z,11.20
2023-05-03T07:32:41.072Z,11.30
2023-05-03T07:35:07.969Z,11.40
2023-05-03T07:37:34.456Z,11.40
2023-05-03T07:40:01.037Z,11.50
2023-05-03T07:42:27.559Z,11.60
2023-05-03T07:44:55.595Z,11.60
2023-05-03T07:47:22.367Z,11.60
2023-05-03T07:49:50.712Z,11.60
2023-05-03T07:52:17.932Z,11.70
2023-05-03T07:54:45.814Z,11.80
2023-05-03T07:57:14.303Z,12.00
2023-05-03T07:59:40.780Z,12.10
2023-05-03T08:02:07.782Z,12.30
2023-05-03T08:04:34.628Z,12.40
2023-05-03T08:07:02.355Z,12.50
2023-05-03T08:09:29.500Z,12.50
2023-05-03T08:11:56.984Z,12.40
2023-05-03T08:14:23.811Z,12.50
2023-05-03T08:16:50.264Z,12.60
2023-05-03T08:19:16.802Z,12.70
2023-05-03T08:21:43.333Z,12.80
2023-05-03T08:24:10.136Z,12.90
2023-05-03T08:26:36.753Z,12.90
2023-05-03T08:29:03.575Z,12.90
2023-05-03T08:31:31.219Z,13.00
2023-05-03T08:33:57.746Z,13.00
2023-05-03T08:36:24.249Z,13.00
2023-05-03T08:38:50.702Z,13.20
2023-05-03T08:41:23.597Z,13.30
2023-05-03T08:43:54.101Z,13.50
2023-05-03T08:46:21.332Z,13.60
2023-05-03T08:48:49.550Z,13.70
2023-05-03T08:51:20.203Z,13.80
2023-05-03T08:53:46.996Z,13.90
2023-05-03T08:56:41.255Z,14.00
2023-05-03T08:59:09.016Z,14.00
2023-05-03T09:01:37.208Z,13.90
2023-05-03T09:04:04.336Z,14.10
2023-05-03T09:06:33.002Z,14.20
2023-05-03T09:09:00.540Z,14.30
2023-05-03T09:11:29.361Z,14.40
2023-05-03T09:14:27.959Z,14.60
2023-05-03T09:16:54.617Z,14.60
2023-05-03T09:19:21.614Z,14.60
2023-05-03T09:21:48.157Z,14.60
2023-05-03T09:24:16.271Z,14.80
2023-05-03T09:26:43.795Z,14.90
2023-05-03T09:29:10.453Z,14.90
2023-05-03T09:31:37.619Z,14.90
2023-05-03T09:34:22.231Z,15.00
2023-05-03T09:36:48.722Z,15.00
2023-05-03T09:39:19.681Z,15.00
2023-05-03T09:41:46.898Z,15.00
2023-05-03T09:44:13.579Z,15.10
2023-05-03T09:46:40.258Z,15.20
2023-05-03T09:49:06.948Z,15.30
2023-05-03T09:51:34.065Z,15.30
2023-05-03T09:54:01.124Z,15.40
2023-05-03T09:56:27.784Z,15.50
2023-05-03T09:58:54.537Z,15.50
2023-05-03T10:01:24.364Z,15.60
2023-05-03T10:03:52.160Z,15.50
2023-05-03T10:06:27.920Z,15.70
2023-05-03T10:09:05.909Z,15.80
2023-05-03T10:11:36.385Z,15.70
2023-05-03T10:14:05.185Z,15.70
2023-05-03T10:16:35.668Z,15.90
2023-05-03T10:19:19.561Z,16.10
2023-05-03T10:22:07.154Z,16.00
2023-05-03T10:24:35.358Z,16.10
2023-05-03T10:27:02.682Z,16.20
2023-05-03T10:29:35.908Z,16.30
2023-05-03T10:32:03.930Z,16.30
2023-05-03T10:34:39.684Z,16.20
2023-05-03T10:37:11.488Z,16.30
2023-05-03T10:39:44.509Z,16.40
2023-05-03T10:42:10.995Z,16.40
2023-05-03T10:44:51.319Z,16.50
2023-05-03T10:47:26.667Z,16.60
2023-05-03T10:50:19.766Z,16.60
2023-05-03T10:52:48.842Z,16.60
2023-05-03T10:55:21.399Z,16.80
2023-05-03T10:57:49.299Z,16.80
2023-05-03T11:00:35.519Z,17.00
2023-05-03T11:03:11.014Z,16.90
2023-05-03T11:05:38.430Z,16.90
2023-05-03T11:08:09.829Z,17.00
2023-05-03T11:10:36.382Z,17.00
2023-05-03T11:13:02.880Z,17.00
2023-05-03T11:15:29.506Z,17.10
2023-05-03T11:17:56.449Z,17.20
2023-05-03T11:20:23.626Z,17.20
2023-05-03T11:22:50.382Z,17.30
2023-05-03T11:25:17.047Z,17.20
2023-05-03T11:27:44.457Z,17.20
2023-05-03T11:30:12.083Z,17.30
2023-05-03T11:32:38.885Z,17.10
2023-05-03T11:35:09.250Z,17.20
2023-05-03T11:37:35.897Z,17.30
2023-05-03T11:40:02.495Z,17.40
2023-05-03T11:42:29.138Z,17.50
2023-05-03T11:44:58.700Z,17.40
2023-05-03T11:47:26.083Z,17.50
2023-05-03T11:49:57.224Z,17.50
2023-05-03T11:52:25.410Z,17.70
2023-05-03T11:54:52.231Z,17.70
2023-05-03T11:57:19.330Z,17.60
2023-05-03T11:59:46.265Z,17.70
2023-05-03T12:02:14.380Z,17.80
2023-05-03T12:04:44.291Z,18.00
2023-05-03T12:07:14.721Z,18.00
2023-05-03T12:09:47.638Z,18.00
2023-05-03T12:12:24.669Z,18.10
2023-05-03T12:14:59.264Z,18.20
2023-05-03T12:17:42.417Z,18.10
2023-05-03T12:22:57.819Z,18.30
2023-05-03T12:25:27.564Z,18.40
2023-05-03T12:28:17.588Z,18.30
2023-05-03T12:30:46.497Z,18.30
2023-05-03T12:33:15.611Z,18.40
2023-05-03T12:35:46.521Z,18.40
2023-05-03T12:38:16.707Z,18.40
2023-05-03T12:40:45.445Z,18.50
2023-05-03T12:43:12.405Z,18.50
2023-05-03T12:45:40.929Z,18.50
2023-05-03T12:48:09.049Z,18.60
2023-05-03T12:50:38.756Z,18.60
2023-05-03T12:53:09.345Z,18.70
2023-05-03T12:55:42.476Z,18.70
2023-05-03T13:00:48.469Z,18.90
2023-05-03T13:03:32.551Z,19.00
2023-05-03T13:06:00.705Z,19.20
2023-05-03T13:08:34.150Z,19.20
2023-05-03T13:11:02.102Z,19.10
2023-05-03T13:13:28.865Z,19.10
2023-05-03T13:15:55.458Z,19.20
2023-05-03T13:18:22.784Z,19.20
2023-05-03T13:20:50.436Z,19.20
2023-05-03T13:23:16.971Z,19.20
2023-05-03T13:25:44.493Z,19.20
2023-05-03T13:28:10.987Z,19.40
2023-05-03T13:30:37.540Z,19.40
2023-05-03T13:33:04.160Z,19.50
2023-05-03T13:35:30.904Z,19.60
2023-05-03T13:37:57.784Z,19.50
2023-05-03T13:40:24.643Z,19.50
2023-05-03T13:42:51.608Z,19.60
2023-05-03T13:45:18.985Z,19.70
2023-05-03T13:50:15.831Z,19.80
2023-05-03T13:52:44.867Z,19.80
2023-05-03T13:55:11.613Z,19.80
2023-05-03T13:57:38.128Z,19.70
2023-05-03T14:00:07.098Z,19.60
2023-05-03T14:02:33.896Z,19.80
2023-05-03T14:05:00.428Z,19.90
2023-05-03T14:07:26.927Z,20.00
2023-05-03T14:09:53.438Z,19.80
2023-05-03T14:12:20.100Z,19.90
2023-05-03T14:14:46.776Z,19.90
2023-05-03T14:17:13.559Z,19.80
2023-05-03T14:19:40.151Z,19.90
2023-05-03T14:22:06.684Z,20.00
2023-05-03T14:24:33.281Z,19.90
2023-05-03T14:27:00.434Z,20.10
2023-05-03T14:29:27.254Z,20.00
2023-05-03T14:31:54.391Z,19.90
2023-05-03T14:34:21.012Z,19.80
2023-05-03T14:36:47.649Z,20.00
2023-05-03T14:39:17.333Z,20.10
2023-05-03T14:41:46.874Z,20.10
2023-05-03T14:44:13.441Z,20.20
2023-05-03T14:46:39.936Z,20.20
2023-05-03T14:49:06.995Z,20.20
2023-05-03T14:51:33.627Z,20.20
2023-05-03T14:54:00.445Z,20.20
2023-05-03T14:56:27.301Z,20.20
2023-05-03T14:58:53.967Z,20.10
2023-05-03T15:01:22.406Z,20.20
2023-05-03T15:03:49.759Z,20.30
2023-05-03T15:06:23.823Z,20.40
2023-05-03T15:08:52.270Z,20.30
2023-05-03T15:11:18.730Z,20.20
2023-05-03T15:13:45.227Z,20.20
2023-05-03T15:16:12.012Z,20.10
2023-05-03T15:18:38.482Z,20.10
2023-05-03T15:21:05.430Z,20.20
2023-05-03T15:23:32.779Z,20.20
2023-05-03T15:25:59.390Z,20.30
2023-05-03T15:28:26.076Z,20.40
2023-05-03T15:30:52.587Z,20.30
2023-05-03T15:33:19.489Z,20.40
2023-05-03T15:35:46.298Z,20.50
2023-05-03T15:38:12.891Z,20.40
2023-05-03T15:40:39.420Z,20.50
2023-05-03T15:43:05.914Z,20.50
2023-05-03T15:45:33.340Z,20.50
2023-05-03T15:48:00.184Z,20.70
2023-05-03T15:50:26.771Z,20.90
2023-05-03T15:52:53.395Z,20.90
2023-05-03T15:55:20.303Z,20.80
2023-05-03T15:57:46.907Z,20.80
2023-05-03T16:00:16.634Z,20.80
2023-05-03T16:02:43.231Z,20.80
2023-05-03T16:05:11.141Z,20.70
2023-05-03T16:07:37.710Z,20.80
2023-05-03T16:10:05.091Z,21.00
2023-05-03T16:12:31.805Z,21.10
2023-05-03T16:14:58.285Z,21.10
2023-05-03T16:17:25.606Z,21.10
2023-05-03T16:19:52.203Z,21.20
2023-05-03T16:22:18.717Z,21.20
2023-05-03T16:24:46.823Z,21.20
2023-05-03T16:27:13.323Z,21.10
2023-05-03T16:29:39.856Z,21.30
2023-05-03T16:32:09.646Z,21.40
2023-05-03T16:34:37.771Z,21.60
2023-05-03T16:37:04.442Z,21.80
2023-05-03T16:39:31.378Z,21.80
2023-05-03T16:41:57.910Z,21.70
2023-05-03T16:44:24.943Z,21.60
2023-05-03T16:46:51.696Z,21.60
2023-05-03T16:49:18.400Z,21.70
2023-05-03T16:51:45.006Z,21.80
2023-05-03T16:54:12.787Z,21.90
2023-05-03T16:56:39.277Z,21.90
2023-05-03T16:59:05.785Z,21.90
2023-05-03T17:01:32.349Z,22.00
2023-05-03T17:03:58.988Z,22.00
2023-05-03T17:06:25.485Z,22.10
2023-05-03T17:08:52.247Z,22.20
2023-05-03T17:11:18.795Z,22.40
2023-05-03T17:13:45.319Z,22.50
2023-05-03T17:16:15.142Z,22.40
2023-05-03T17:18:42.548Z,22.30
2023-05-03T17:21:09.655Z,22.20
2023-05-03T17:23:38.223Z,22.20
2023-05-03T17:26:09.141Z,22.20
2023-05-03T17:28:36.010Z,22.30
2023-05-03T17:31:03.396Z,22.40
2023-05-03T17:33:30.121Z,22.30
2023-05-03T17:35:56.948Z,22.20
2023-05-03T17:38:23.734Z,22.30
2023-05-03T17:40:50.701Z,22.40
2023-05-03T17:43:17.809Z,22.50
2023-05-03T17:45:45.785Z,22.50
2023-05-03T17:48:12.713Z,22.30
2023-05-03T17:50:41.522Z,22.00
2023-05-03T17:53:09.035Z,21.50
2023-05-03T17:55:36.564Z,20.90
2023-05-03T17:58:03.267Z,20.40
2023-05-03T18:00:29.853Z,19.90
2023-05-03T18:02:56.996Z,19.60
2023-05-03T18:05:23.716Z,19.30
2023-05-03T18:07:50.194Z,19.10
2023-05-03T18:10:17.931Z,18.90
2023-05-03T18:12:44.597Z,18.60
2023-05-03T18:15:11.592Z,18.50
2023-05-03T18:17:38.197Z,18.40
2023-05-03T18:20:06.576Z,18.30
2023-05-03T18:22:33.287Z,18.20
2023-05-03T18:25:01.949Z,18.10
2023-05-03T18:27:28.893Z,18.00
2023-05-03T18:29:55.445Z,17.90
2023-05-03T18:32:23.565Z,17.80
2023-05-03T18:34:50.347Z,17.60
2023-05-03T18:37:17.653Z,17.50
2023-05-03T18:39:44.351Z,17.40
2023-05-03T18:42:11.201Z,17.30
2023-05-03T18:44:39.607Z,17.20
2023-05-03T18:47:07.445Z,17.20
2023-05-03T18:49:34.231Z,17.10
2023-05-03T18:52:01.240Z,17.00
2023-05-03T18:54:27.784Z,17.00
2023-05-03T18:56:54.401Z,16.90
2023-05-03T18:59:20.850Z,16.90
2023-05-03T19:01:47.458Z,16.90
2023-05-03T19:04:14.724Z,16.80
2023-05-03T19:06:41.393Z,16.80
2023-05-03T19:09:11.667Z,16.70
2023-05-03T19:11:41.479Z,16.60
2023-05-03T19:14:08.172Z,16.60
2023-05-03T19:16:34.772Z,16.60
2023-05-03T19:19:01.287Z,16.50
2023-05-03T19:21:27.993Z,16.50
2023-05-03T19:23:54.458Z,16.50
2023-05-03T19:26:21.681Z,16.60
2023-05-03T19:28:48.221Z,16.50
2023-05-03T19:31:14.834Z,16.40
2023-05-03T19:33:41.338Z,16.30
2023-05-03T19:36:12.258Z,16.20
2023-05-03T19:38:38.785Z,16.20
2023-05-03T19:41:07.854Z,16.10
2023-05-03T19:43:34.606Z,16.10
2023-05-03T19:46:01.835Z,15.90
2023-05-03T19:48:28.707Z,15.90
2023-05-03T19:50:55.455Z,15.80
2023-05-03T19:53:21.954Z,15.80
2023-05-03T19:55:58.972Z,15.60
2023-05-03T19:58:26.195Z,15.50
2023-05-03T20:00:53.143Z,15.40
2023-05-03T20:03:22.165Z,15.30
2023-05-03T20:05:48.707Z,15.30
2023-05-03T20:08:15.261Z,15.20
2023-05-03T20:10:43.316Z,15.30
2023-05-03T20:13:11.521Z,15.30
2023-05-03T20:15:38.179Z,15.30
2023-05-03T20:18:04.777Z,15.20
2023-05-03T20:20:31.430Z,15.10
2023-05-03T20:22:57.927Z,15.00
2023-05-03T20:25:25.652Z,14.90
2023-05-03T20:27:52.501Z,14.90
2023-05-03T20:30:19.099Z,14.80
2023-05-03T20:32:45.762Z,14.70
2023-05-03T20:35:12.566Z,14.60
2023-05-03T20:37:39.472Z,14.50
2023-05-03T20:40:06.773Z,14.40
2023-05-03T20:42:33.338Z,14.30
2023-05-03T20:44:59.804Z,14.20
2023-05-03T20:47:27.676Z,14.10
2023-05-03T20:49:54.254Z,14.00
2023-05-03T20:52:20.970Z,14.00
2023-05-03T20:54:47.608Z,14.00
2023-05-03T20:57:16.699Z,13.90
2023-05-03T20:59:44.186Z,13.90
2023-05-03T21:02:11.066Z,13.80
2023-05-03T21:04:37.908Z,13.80
2023-05-03T21:07:04.568Z,13.70
2023-05-03T21:09:31.551Z,13.70
2023-05-03T21:11:58.157Z,13.70
2023-05-03T21:14:24.653Z,13.60
2023-05-03T21:16:51.431Z,13.50
2023-05-03T21:19:17.931Z,13.50
2023-05-03T21:21:44.646Z,13.40
2023-05-03T21:24:11.172Z,13.30
2023-05-03T21:26:37.675Z,13.20
2023-05-03T21:29:04.254Z,13.20
2023-05-03T21:31:30.928Z,13.20
2023-05-03T21:33:58.138Z,13.10
2023-05-03T21:36:25.153Z,13.10
2023-05-03T21:38:53.014Z,13.00
2023-05-03T21:41:19.730Z,13.00
2023-05-03T21:43:46.727Z,13.00
2023-05-03T21:46:13.979Z,13.00
2023-05-03T21:48:40.871Z,13.00
2023-05-03T21:51:07.907Z,13.00
2023-05-03T21:53:35.515Z,12.90
2023-05-03T21:56:02.215Z,13.00
2023-05-03T21:58:29.391Z,12.90
2023-05-03T22:00:55.896Z,12.90
2023-05-03T22:03:22.591Z,12.90
2023-05-03T22:05:51.334Z,12.90
2023-05-03T22:08:18.665Z,12.70
2023-05-03T22:10:45.965Z,12.60
2023-05-03T22:13:13.019Z,12.50
2023-05-03T22:15:39.703Z,12.50
2023-05-03T22:18:06.376Z,12.40
2023-05-03T22:20:32.901Z,12.40
2023-05-03T22:22:59.459Z,12.40
2023-05-03T22:25:27.429Z,12.30
2023-05-03T22:27:54.941Z,12.20
2023-05-03T22:30:22.135Z,12.10
2023-05-03T22:32:49.403Z,12.00
2023-05-03T22:35:16.477Z,12.00
2023-05-03T22:37:43.016Z,12.00
2023-05-03T22:40:09.815Z,11.90
2023-05-03T22:42:36.340Z,11.80
2023-05-03T22:45:03.346Z,11.70
2023-05-03T22:47:30.033Z,11.80
2023-05-03T22:49:56.832Z,11.90
2023-05-03T22:52:23.446Z,11.80
2023-05-03T22:54:54.980Z,11.70
2023-05-03T22:57:21.536Z,11.60
2023-05-03T22:59:48.092Z,11.60
2023-05-03T23:02:14.795Z,11.60
2023-05-03T23:04:41.367Z,11.60
2023-05-03T23:07:07.929Z,11.60
2023-05-03T23:09:34.537Z,11.60
2023-05-03T23:12:01.084Z,11.60
2023-05-03T23:14:27.574Z,11.60
2023-05-03T23:16:54.194Z,11.50
2023-05-03T23:19:20.780Z,11.40
2023-05-03T23:21:48.183Z,11.40
2023-05-03T23:24:15.008Z,11.30
2023-05-03T23:26:41.532Z,11.30
2023-05-03T23:29:09.427Z,11.30
2023-05-03T23:31:36.856Z,11.30
2023-05-03T23:34:05.044Z,11.30
2023-05-03T23:36:32.699Z,11.20
2023-05-03T23:38:59.218Z,11.10
2023-05-03T23:41:26.090Z,11.00
2023-05-03T23:43:52.580Z,11.00
2023-05-03T23:46:19.122Z,11.00
2023-05-03T23:48:45.638Z,11.00
2023-05-03T23:51:12.156Z,10.90
2023-05-03T23:53:38.623Z,10.80
2023-05-03T23:56:05.130Z,10.80
2023-05-03T23:58:31.643Z,10.80
